createdAt,value
2023-03-11T00:03:36.968Z,20.17
2023-03-11T00:07:36.819Z,20.15
2023-03-11T00:11:36.651Z,20.15
2023-03-11T00:15:36.565Z,20.14
2023-03-11T00:19:36.431Z,20.15
2023-03-11T00:23:36.344Z,20.13
2023-03-11T00:27:36.256Z,20.13
2023-03-11T00:31:36.074Z,20.13
2023-03-11T00:35:35.992Z,20.14
2023-03-11T00:39:35.883Z,20.15
2023-03-11T00:43:35.691Z,20.16
2023-03-11T00:47:35.555Z,20.17
2023-03-11T00:51:35.407Z,20.17
2023-03-11T00:55:35.268Z,20.17
2023-03-11T00:59:35.126Z,20.16
2023-03-11T01:03:34.968Z,20.16
2023-03-11T01:07:34.859Z,20.17
2023-03-11T01:11:34.707Z,20.15
2023-03-11T01:15:34.707Z,20.16
2023-03-11T01:19:34.444Z,20.16
2023-03-11T01:23:34.697Z,20.16
2023-03-11T01:27:34.148Z,20.16
2023-03-11T01:31:34.016Z,20.16
2023-03-11T01:35:33.893Z,20.16
2023-03-11T01:39:33.709Z,20.16
2023-03-11T01:43:33.582Z,20.15
2023-03-11T01:47:33.461Z,20.15
2023-03-11T01:51:33.299Z,20.14
2023-03-11T01:55:33.198Z,20.14
2023-03-11T01:59:33.085Z,20.13
2023-03-11T02:03:32.886Z,20.14
2023-03-11T02:07:32.755Z,20.13
2023-03-11T02:11:32.607Z,20.13
2023-03-11T02:15:32.501Z,20.14
2023-03-11T02:19:32.303Z,20.12
2023-03-11T02:23:32.207Z,20.12
2023-03-11T02:27:32.074Z,20.13
2023-03-11T02:31:32.033Z,20.13
2023-03-11T02:35:31.895Z,20.13
2023-03-11T02:39:31.772Z,20.12
2023-03-11T02:43:31.589Z,20.12
2023-03-11T02:47:31.466Z,20.12
2023-03-11T02:51:31.393Z,20.12
2023-03-11T02:55:31.272Z,20.13
2023-03-11T02:59:31.161Z,20.13
2023-03-11T03:03:31.119Z,20.13
2023-03-11T03:07:30.958Z,20.14
2023-03-11T03:11:30.830Z,20.14
2023-03-11T03:15:30.761Z,20.13
2023-03-11T03:19:30.689Z,20.13
2023-03-11T03:23:30.560Z,20.14
2023-03-11T03:27:30.442Z,20.13
2023-03-11T03:31:30.443Z,20.13
2023-03-11T03:35:30.228Z,20.13
2023-03-11T03:39:30.823Z,20.12
2023-03-11T03:43:30.071Z,20.12
2023-03-11T03:47:29.940Z,20.11
2023-03-11T03:51:30.780Z,20.11
2023-03-11T03:55:29.725Z,20.10
2023-03-11T03:59:29.672Z,20.10
2023-03-11T04:03:29.673Z,20.09
2023-03-11T04:07:29.491Z,20.10
2023-03-11T04:11:29.423Z,20.09
2023-03-11T04:15:29.322Z,20.09
2023-03-11T04:19:29.197Z,20.09
2023-03-11T04:23:29.125Z,20.09
2023-03-11T04:27:29.011Z,20.07
2023-03-11T04:31:28.937Z,20.07
2023-03-11T04:35:28.894Z,20.07
2023-03-11T04:39:28.814Z,20.07
2023-03-11T04:43:28.734Z,20.07
2023-03-11T04:47:28.662Z,20.07
2023-03-11T04:51:28.598Z,20.08
2023-03-11T04:55:28.523Z,20.07
2023-03-11T04:59:28.445Z,20.06
2023-03-11T05:03:28.469Z,20.06
2023-03-11T05:07:28.095Z,20.05
2023-03-11T05:11:27.750Z,20.05
2023-03-11T05:15:27.412Z,20.05
2023-03-11T05:19:27.095Z,20.04
2023-03-11T05:23:26.816Z,20.06
2023-03-11T05:27:26.450Z,20.06
2023-03-11T05:31:26.207Z,20.06
2023-03-11T05:35:25.806Z,20.05
2023-03-11T05:39:25.477Z,20.05
2023-03-11T05:43:25.139Z,20.05
2023-03-11T05:47:25.018Z,20.04
2023-03-11T05:51:24.916Z,20.04
2023-03-11T05:55:24.836Z,20.03
2023-03-11T05:59:24.753Z,20.03
2023-03-11T06:03:24.718Z,20.04
2023-03-11T06:07:24.628Z,20.03
2023-03-11T06:11:24.323Z,20.04
2023-03-11T06:15:24.048Z,20.04
2023-03-11T06:19:23.676Z,20.04
2023-03-11T06:23:23.325Z,20.05
2023-03-11T06:27:23.006Z,20.05
2023-03-11T06:31:22.743Z,20.06
2023-03-11T06:35:22.378Z,20.08
2023-03-11T06:39:22.081Z,20.07
2023-03-11T06:43:21.740Z,20.07
2023-03-11T06:47:21.477Z,20.07
2023-03-11T06:51:21.294Z,20.07
2023-03-11T06:55:21.166Z,20.07
2023-03-11T06:59:21.119Z,20.06
2023-03-11T07:03:20.781Z,20.06
2023-03-11T07:07:20.485Z,20.09
2023-03-11T07:11:20.276Z,20.09
2023-03-11T07:15:20.208Z,20.10
2023-03-11T07:19:19.712Z,20.11
2023-03-11T07:23:19.207Z,20.12
2023-03-11T07:27:18.889Z,20.12
2023-03-11T07:31:18.682Z,20.13
2023-03-11T07:35:18.833Z,20.13
2023-03-11T07:39:17.963Z,20.13
2023-03-11T07:43:17.755Z,20.13
2023-03-11T07:47:17.649Z,20.14
2023-03-11T07:51:17.809Z,20.14
2023-03-11T07:55:17.498Z,20.16
2023-03-11T07:59:17.397Z,20.16
2023-03-11T08:03:17.305Z,20.16
2023-03-11T08:07:17.188Z,20.17
2023-03-11T08:11:17.042Z,20.18
2023-03-11T08:15:16.889Z,20.19
2023-03-11T08:19:16.778Z,20.19
2023-03-11T08:23:16.669Z,20.19
2023-03-11T08:27:16.489Z,20.20
2023-03-11T08:31:16.418Z,20.21
2023-03-11T08:35:16.243Z,20.21
2023-03-11T08:39:16.184Z,20.23
2023-03-11T08:43:15.956Z,20.25
2023-03-11T08:47:15.846Z,20.28
2023-03-11T08:51:15.632Z,20.29
2023-03-11T08:55:15.482Z,20.30
2023-03-11T08:59:15.322Z,20.31
2023-03-11T09:03:15.141Z,20.32
2023-03-11T09:07:14.945Z,20.33
2023-03-11T09:11:14.789Z,20.32
2023-03-11T09:15:14.622Z,20.32
2023-03-11T09:19:14.514Z,20.31
2023-03-11T09:23:14.329Z,20.31
2023-03-11T09:27:14.184Z,20.34
2023-03-11T09:31:14.090Z,20.35
2023-03-11T09:35:13.934Z,20.37
2023-03-11T09:39:13.740Z,20.38
2023-03-11T09:43:13.534Z,20.40
2023-03-11T09:47:13.445Z,20.38
2023-03-11T09:51:13.204Z,20.37
2023-03-11T09:55:12.985Z,20.37
2023-03-11T09:59:12.789Z,20.38
2023-03-11T10:03:12.698Z,20.38
2023-03-11T10:07:12.411Z,20.41
2023-03-11T10:11:12.207Z,20.42
2023-03-11T10:15:12.016Z,20.43
2023-03-11T10:19:11.777Z,20.47
2023-03-11T10:23:11.570Z,20.49
2023-03-11T10:27:11.340Z,20.51
2023-03-11T10:31:11.049Z,20.53
2023-03-11T10:35:10.800Z,20.53
2023-03-11T10:39:10.502Z,20.54
2023-03-11T10:43:10.258Z,20.55
2023-03-11T10:47:09.945Z,20.57
2023-03-11T10:51:09.649Z,20.58
2023-03-11T10:55:09.394Z,20.60
2023-03-11T10:59:09.083Z,20.62
2023-03-11T11:03:08.784Z,20.61
2023-03-11T11:07:08.473Z,20.62
2023-03-11T11:11:08.176Z,20.63
2023-03-11T11:15:07.852Z,20.64
2023-03-11T11:19:07.574Z,20.65
2023-03-11T11:23:07.268Z,20.66
2023-03-11T11:27:06.981Z,20.67
2023-03-11T11:31:06.808Z,20.68
2023-03-11T11:35:06.443Z,20.67
2023-03-11T11:39:06.158Z,20.67
2023-03-11T11:43:05.851Z,20.65
2023-03-11T11:47:06.465Z,20.67
2023-03-11T11:51:05.341Z,20.68
2023-03-11T11:55:05.174Z,20.69
2023-03-11T11:59:04.931Z,20.70
2023-03-11T12:03:04.782Z,20.71
2023-03-11T12:07:04.532Z,20.70
2023-03-11T12:11:04.377Z,20.70
2023-03-11T12:15:04.089Z,20.71
2023-03-11T12:19:03.953Z,20.74
2023-03-11T12:23:03.737Z,20.75
2023-03-11T12:27:03.586Z,20.77
2023-03-11T12:31:03.529Z,20.77
2023-03-11T12:35:03.444Z,20.78
2023-03-11T12:39:03.361Z,20.79
2023-03-11T12:43:03.208Z,20.80
2023-03-11T12:47:02.990Z,20.79
2023-03-11T12:51:02.538Z,20.80
2023-03-11T12:55:02.259Z,20.81
2023-03-11T12:59:01.881Z,20.81
2023-03-11T13:03:01.595Z,20.82
2023-03-11T13:07:01.190Z,20.82
2023-03-11T13:11:00.838Z,20.83
2023-03-11T13:15:02.454Z,20.83
2023-03-11T13:19:00.152Z,20.83
2023-03-11T13:23:00.047Z,20.83
2023-03-11T13:27:00.061Z,20.80
2023-03-11T13:30:59.396Z,20.82
2023-03-11T13:34:59.126Z,20.83
2023-03-11T13:38:58.686Z,20.83
2023-03-11T13:42:58.397Z,20.84
2023-03-11T13:46:58.031Z,20.84
2023-03-11T13:50:57.726Z,20.84
2023-03-11T13:54:57.607Z,20.83
2023-03-11T13:58:57.513Z,20.83
2023-03-11T14:02:57.172Z,20.83
2023-03-11T14:06:56.894Z,20.83
2023-03-11T14:10:56.492Z,20.82
2023-03-11T14:14:56.194Z,20.81
2023-03-11T14:18:55.874Z,20.81
2023-03-11T14:22:55.523Z,20.79
2023-03-11T14:26:55.174Z,20.81
2023-03-11T14:30:54.853Z,20.77
2023-03-11T14:34:54.527Z,20.75
2023-03-11T14:38:54.251Z,20.75
2023-03-11T14:42:53.905Z,20.76
2023-03-11T14:46:53.758Z,20.76
2023-03-11T14:50:53.532Z,20.77
2023-03-11T14:54:53.416Z,20.77
2023-03-11T14:59:06.472Z,20.74
2023-03-11T15:02:53.936Z,20.71
2023-03-11T15:06:52.544Z,20.70
2023-03-11T15:10:52.212Z,20.72
2023-03-11T15:14:51.896Z,20.71
2023-03-11T15:18:51.532Z,20.72
2023-03-11T15:22:51.195Z,20.72
2023-03-11T15:26:50.869Z,20.69
2023-03-11T15:30:50.556Z,20.64
2023-03-11T15:34:50.190Z,20.62
2023-03-11T15:38:49.869Z,20.57
2023-03-11T15:42:49.543Z,20.55
2023-03-11T15:46:49.233Z,20.58
2023-03-11T15:50:53.420Z,20.58
2023-03-11T15:54:55.697Z,20.54
2023-03-11T15:58:49.325Z,20.51
2023-03-11T16:02:48.080Z,20.47
2023-03-11T16:06:53.935Z,20.46
2023-03-11T16:10:48.342Z,20.45
2023-03-11T16:14:47.000Z,20.44
2023-03-11T16:18:46.664Z,20.42
2023-03-11T16:22:46.337Z,20.41
2023-03-11T16:26:46.009Z,20.40
2023-03-11T16:30:45.835Z,20.39
2023-03-11T16:34:45.671Z,20.38
2023-03-11T16:38:45.422Z,20.37
2023-03-11T16:42:45.262Z,20.37
2023-03-11T16:46:45.177Z,20.35
2023-03-11T16:50:44.934Z,20.34
2023-03-11T16:54:44.738Z,20.33
2023-03-11T16:58:44.608Z,20.33
2023-03-11T17:02:44.462Z,20.32
2023-03-11T17:06:44.393Z,20.32
2023-03-11T17:10:44.235Z,20.31
2023-03-11T17:14:44.067Z,20.31
2023-03-11T17:18:43.909Z,20.30
2023-03-11T17:22:43.773Z,20.31
2023-03-11T17:26:43.630Z,20.30
2023-03-11T17:30:43.496Z,20.28
2023-03-11T17:34:43.350Z,20.28
2023-03-11T17:38:43.181Z,20.28
2023-03-11T17:42:43.058Z,20.28
2023-03-11T17:46:42.949Z,20.27
2023-03-11T17:50:42.784Z,20.26
2023-03-11T17:54:42.654Z,20.26
2023-03-11T17:58:42.498Z,20.25
2023-03-11T18:02:42.383Z,20.26
2023-03-11T18:06:42.297Z,20.25
2023-03-11T18:10:42.126Z,20.25
2023-03-11T18:14:41.989Z,20.24
2023-03-11T18:18:41.886Z,20.23
2023-03-11T18:22:44.381Z,20.22
2023-03-11T18:26:41.405Z,20.22
2023-03-11T18:30:41.101Z,20.21
2023-03-11T18:34:40.738Z,20.21
2023-03-11T18:38:40.406Z,20.20
2023-03-11T18:42:40.060Z,20.19
2023-03-11T18:46:39.810Z,20.18
2023-03-11T18:50:39.720Z,20.18
2023-03-11T18:54:39.587Z,20.17
2023-03-11T18:58:39.507Z,20.16
2023-03-11T19:02:39.157Z,20.15
2023-03-11T19:06:38.821Z,20.15
2023-03-11T19:10:38.469Z,20.14
2023-03-11T19:14:38.124Z,20.14
2023-03-11T19:18:37.793Z,20.14
2023-03-11T19:22:37.449Z,20.13
2023-03-11T19:26:44.722Z,20.13
2023-03-11T19:30:37.713Z,20.12
2023-03-11T19:34:36.402Z,20.11
2023-03-11T19:38:36.236Z,20.10
2023-03-11T19:42:35.939Z,20.11
2023-03-11T19:46:35.603Z,20.10
2023-03-11T19:50:35.197Z,20.10
2023-03-11T19:54:34.917Z,20.09
2023-03-11T19:58:34.554Z,20.09
2023-03-11T20:02:34.273Z,20.09
2023-03-11T20:06:33.890Z,20.08
2023-03-11T20:10:33.606Z,20.08
2023-03-11T20:14:33.219Z,20.08
2023-03-11T20:18:33.133Z,20.07
2023-03-11T20:22:33.022Z,20.07
2023-03-11T20:26:32.678Z,20.07
2023-03-11T20:30:32.293Z,20.06
2023-03-11T20:34:31.973Z,20.06
2023-03-11T20:38:31.597Z,20.05
2023-03-11T20:42:31.364Z,20.06
2023-03-11T20:46:30.982Z,20.06
2023-03-11T20:50:30.574Z,20.05
2023-03-11T20:54:30.256Z,20.05
2023-03-11T20:58:29.972Z,20.06
2023-03-11T21:02:29.844Z,20.06
2023-03-11T21:06:29.453Z,20.06
2023-03-11T21:10:29.149Z,20.04
2023-03-11T21:14:28.756Z,20.05
2023-03-11T21:18:28.417Z,20.04
2023-03-11T21:22:28.060Z,20.03
2023-03-11T21:26:27.801Z,20.04
2023-03-11T21:30:27.436Z,20.03
2023-03-11T21:34:27.139Z,20.03
2023-03-11T21:38:26.873Z,20.02
2023-03-11T21:42:26.665Z,20.02
2023-03-11T21:46:26.552Z,20.02
2023-03-11T21:50:26.065Z,20.02
2023-03-11T21:54:25.773Z,20.02
2023-03-11T21:58:25.598Z,20.01
2023-03-11T22:02:25.108Z,20.02
2023-03-11T22:06:24.839Z,20.01
2023-03-11T22:10:24.455Z,20.01
2023-03-11T22:14:24.137Z,20.00
2023-03-11T22:18:23.750Z,20.00
2023-03-11T22:22:23.521Z,20.00
2023-03-11T22:26:23.067Z,20.00
2023-03-11T22:30:22.711Z,20.00
2023-03-11T22:34:22.374Z,20.00
2023-03-11T22:38:22.037Z,19.99
2023-03-11T22:42:21.766Z,20.00
2023-03-11T22:46:21.403Z,19.99
2023-03-11T22:50:21.071Z,19.99
2023-03-11T22:54:20.741Z,19.99
2023-03-11T22:58:20.394Z,19.99
2023-03-11T23:02:20.283Z,19.98
2023-03-11T23:06:20.171Z,19.98
2023-03-11T23:10:21.361Z,19.98
2023-03-11T23:14:25.673Z,19.97
2023-03-11T23:18:20.593Z,19.97
2023-03-11T23:22:19.265Z,19.97
2023-03-11T23:26:19.014Z,19.97
2023-03-11T23:30:18.833Z,19.97
2023-03-11T23:34:18.680Z,19.97
2023-03-11T23:38:18.506Z,19.97
2023-03-11T23:42:25.421Z,19.95
2023-03-11T23:46:19.090Z,19.96
2023-03-11T23:50:17.700Z,19.95
2023-03-11T23:54:17.557Z,19.95
2023-03-11T23:58:17.395Z,19.95
